Time;durP1;ratioP1;P1;durP2;ratioP2;P2;SDS_P1;SDS_P2;PMS_P1;PMS_P2;Temp;Humidity;BMP_temperature;BMP_pressure;BME280_temperature;BME280_humidity;BME280_pressure;Samples;Min_cycle;Max_cycle;Signal;HPM_P1;HPM_P2
2020/12/20 00:00:27;;;;;;;51.07;20.40;;;;;;;;;;5029919;28;20269;-76
2020/12/20 00:03:32;;;;;;;38.10;15.50;;;;;;;;;;5025026;28;20706;-75
2020/12/20 00:06:39;;;;;;;44.07;17.90;;;;;;;;;;5031988;28;20250;-75
2020/12/20 00:09:43;;;;;;;54.70;21.40;;;;;;;;;;5046226;28;20214;-76
2020/12/20 00:12:48;;;;;;;38.47;15.43;;;;;;;;;;5053014;28;20207;-76
2020/12/20 00:15:54;;;;;;;41.30;14.87;;;;;;;;;;5070431;28;20274;-74
2020/12/20 00:18:59;;;;;;;36.77;14.77;;;;;;;;;;5060625;28;20226;-75
2020/12/20 00:22:06;;;;;;;37.73;15.27;;;;;;;;;;5067562;28;20227;-75
2020/12/20 00:25:11;;;;;;;41.17;16.27;;;;;;;;;;5050018;28;20211;-77
2020/12/20 00:28:16;;;;;;;39.00;15.67;;;;;;;;;;5062210;28;20218;-77
2020/12/20 00:31:21;;;;;;;43.07;17.20;;;;;;;;;;5052548;28;20246;-78
2020/12/20 00:34:26;;;;;;;41.13;16.40;;;;;;;;;;5046272;28;20199;-77
2020/12/20 00:37:32;;;;;;;37.00;15.50;;;;;;;;;;5039354;28;20215;-77
2020/12/20 00:40:37;;;;;;;35.20;15.00;;;;;;;;;;5042332;28;20230;-76
2020/12/20 00:43:41;;;;;;;31.77;13.93;;;;;;;;;;5057422;28;20281;-76
2020/12/20 00:46:46;;;;;;;37.47;15.70;;;;;;;;;;5049352;28;20216;-77
2020/12/20 00:49:51;;;;;;;36.20;15.60;;;;;;;;;;5037266;28;20286;-77
2020/12/20 00:52:56;;;;;;;36.77;15.07;;;;;;;;;;5039626;28;21704;-77
2020/12/20 00:56:01;;;;;;;36.07;15.10;;;;;;;;;;5053332;28;20222;-75
2020/12/20 00:59:06;;;;;;;37.13;15.30;;;;;;;;;;5039423;28;20207;-77
2020/12/20 01:02:12;;;;;;;36.17;14.73;;;;;;;;;;5023103;28;20350;-76
2020/12/20 01:05:18;;;;;;;35.67;14.73;;;;;;;;;;5023928;28;20195;-74
2020/12/20 01:08:24;;;;;;;37.83;15.33;;;;;;;;;;5052962;28;20234;-74
2020/12/20 01:11:30;;;;;;;33.87;14.20;;;;;;;;;;5033798;28;20286;-75
2020/12/20 01:14:34;;;;;;;34.10;14.03;;;;;;;;;;5021334;28;20218;-75
2020/12/20 01:17:42;;;;;;;40.40;16.13;;;;;;;;;;5047175;28;20218;-77
2020/12/20 01:20:50;;;;;;;41.77;15.87;;;;;;;;;;5043851;28;20239;-77
2020/12/20 01:23:56;;;;;;;48.37;19.60;;;;;;;;;;5033889;28;20247;-74
2020/12/20 01:27:01;;;;;;;41.57;16.13;;;;;;;;;;5035493;28;20211;-75
2020/12/20 01:30:07;;;;;;;45.33;18.20;;;;;;;;;;5045319;28;20619;-74
2020/12/20 01:33:12;;;;;;;47.37;17.77;;;;;;;;;;5045788;28;20877;-75
2020/12/20 01:36:37;;;;;;;42.87;17.27;;;;;;;;;;5041435;28;20228;-76
2020/12/20 01:39:43;;;;;;;41.73;17.47;;;;;;;;;;5044386;28;20250;-76
2020/12/20 01:42:54;;;;;;;37.70;15.83;;;;;;;;;;5034119;28;21732;-76
2020/12/20 01:46:03;;;;;;;42.40;16.83;;;;;;;;;;5044392;28;20230;-75
2020/12/20 01:49:10;;;;;;;47.27;18.67;;;;;;;;;;5044842;28;20263;-75
2020/12/20 01:52:15;;;;;;;41.33;17.10;;;;;;;;;;5046713;28;20222;-76
2020/12/20 01:55:26;;;;;;;42.93;17.17;;;;;;;;;;5056574;28;20227;-75
2020/12/20 01:58:37;;;;;;;37.47;15.93;;;;;;;;;;5050195;28;20230;-75
2020/12/20 02:01:50;;;;;;;42.43;17.30;;;;;;;;;;5047825;28;20235;-75
2020/12/20 02:05:07;;;;;;;41.30;16.93;;;;;;;;;;5076638;28;20199;-75
2020/12/20 02:08:12;;;;;;;45.93;17.33;;;;;;;;;;5071701;28;20230;-74
2020/12/20 02:11:18;;;;;;;43.37;16.83;;;;;;;;;;5023716;28;20239;-75
2020/12/20 02:14:28;;;;;;;49.10;18.40;;;;;;;;;;5063885;28;20278;-77
2020/12/20 02:17:39;;;;;;;41.63;16.87;;;;;;;;;;5044885;28;20620;-75
2020/12/20 02:20:47;;;;;;;41.70;16.83;;;;;;;;;;5049816;28;20804;-75
2020/12/20 02:23:54;;;;;;;42.20;16.37;;;;;;;;;;5055191;28;20196;-75
2020/12/20 02:27:05;;;;;;;43.00;16.40;;;;;;;;;;5049025;28;20209;-76
2020/12/20 02:30:10;;;;;;;44.73;17.40;;;;;;;;;;5043108;28;20210;-77
2020/12/20 02:33:15;;;;;;;42.93;17.23;;;;;;;;;;5045523;28;20195;-75
2020/12/20 02:36:20;;;;;;;45.97;16.90;;;;;;;;;;5053152;28;20289;-76
2020/12/20 02:39:27;;;;;;;43.90;16.13;;;;;;;;;;5041990;28;20212;-76
2020/12/20 02:42:40;;;;;;;48.40;17.23;;;;;;;;;;5049641;28;20578;-76
2020/12/20 02:45:45;;;;;;;44.53;16.40;;;;;;;;;;5046368;28;20211;-75
2020/12/20 02:48:50;;;;;;;42.67;16.40;;;;;;;;;;5040413;28;20722;-76
2020/12/20 02:51:54;;;;;;;43.77;16.23;;;;;;;;;;5040883;28;20281;-76
2020/12/20 02:55:00;;;;;;;39.50;15.10;;;;;;;;;;5046876;28;20813;-73
2020/12/20 02:58:14;;;;;;;39.37;15.07;;;;;;;;;;5027974;28;20717;-74
2020/12/20 03:01:41;;;;;;;42.90;15.47;;;;;;;;;;5036981;28;20286;-75
2020/12/20 03:04:49;;;;;;;37.80;14.23;;;;;;;;;;5045382;28;20654;-77
2020/12/20 03:07:57;;;;;;;39.93;15.90;;;;;;;;;;5040905;28;20738;-76
2020/12/20 03:11:05;;;;;;;40.00;14.77;;;;;;;;;;5045861;28;20319;-78
2020/12/20 03:14:11;;;;;;;39.13;15.20;;;;;;;;;;5040891;28;20265;-77
2020/12/20 03:17:24;;;;;;;44.53;15.73;;;;;;;;;;5047759;28;20602;-74
2020/12/20 03:20:29;;;;;;;35.70;14.33;;;;;;;;;;5040680;28;20738;-76
2020/12/20 03:23:35;;;;;;;39.70;15.03;;;;;;;;;;5053575;28;20245;-74
2020/12/20 03:27:19;;;;;;;45.77;18.13;;;;;;;;;;5026630;28;20217;-76
2020/12/20 03:30:56;;;;;;;45.17;17.33;;;;;;;;;;5023812;28;20269;-77
2020/12/20 03:34:24;;;;;;;50.53;19.03;;;;;;;;;;5033935;28;20211;-75
2020/12/20 03:37:48;;;;;;;39.63;15.27;;;;;;;;;;5036415;28;20255;-75
2020/12/20 03:40:54;;;;;;;33.57;13.40;;;;;;;;;;5033137;28;20301;-73
2020/12/20 03:44:01;;;;;;;38.37;14.23;;;;;;;;;;5041182;28;20638;-77
2020/12/20 03:47:06;;;;;;;38.13;15.83;;;;;;;;;;5036687;28;20575;-76
2020/12/20 03:50:12;;;;;;;34.23;13.70;;;;;;;;;;5045956;28;20213;-76
2020/12/20 03:53:17;;;;;;;30.93;13.67;;;;;;;;;;5039896;28;20196;-74
2020/12/20 03:56:36;;;;;;;37.90;14.63;;;;;;;;;;5059677;28;20255;-75
2020/12/20 03:59:57;;;;;;;36.97;14.87;;;;;;;;;;5056304;28;20203;-77
2020/12/20 04:03:02;;;;;;;35.93;13.87;;;;;;;;;;5039400;28;20279;-77
2020/12/20 04:06:11;;;;;;;33.40;13.97;;;;;;;;;;5014643;28;20240;-76
2020/12/20 04:09:17;;;;;;;36.40;14.40;;;;;;;;;;5028090;28;20223;-76
2020/12/20 04:12:31;;;;;;;37.07;14.33;;;;;;;;;;5040519;28;20335;-76
2020/12/20 04:15:38;;;;;;;40.37;14.97;;;;;;;;;;5045800;28;20207;-77
2020/12/20 04:18:45;;;;;;;37.67;15.20;;;;;;;;;;5037828;28;20291;-74
2020/12/20 04:21:49;;;;;;;38.80;14.97;;;;;;;;;;5048858;28;20223;-76
2020/12/20 04:25:21;;;;;;;39.57;15.37;;;;;;;;;;5051244;28;20231;-74
2020/12/20 04:28:48;;;;;;;38.27;15.37;;;;;;;;;;5056800;28;20191;-75
2020/12/20 04:32:08;;;;;;;37.00;14.97;;;;;;;;;;5047279;28;20230;-73
2020/12/20 04:35:14;;;;;;;39.97;15.07;;;;;;;;;;5035453;28;20258;-77
2020/12/20 04:38:20;;;;;;;34.50;13.97;;;;;;;;;;5037661;28;20581;-75
2020/12/20 04:41:27;;;;;;;35.77;14.27;;;;;;;;;;5027526;28;20278;-75
2020/12/20 04:44:38;;;;;;;38.47;15.07;;;;;;;;;;5050794;28;20218;-77
2020/12/20 04:47:48;;;;;;;35.40;14.57;;;;;;;;;;5043097;28;20195;-75
2020/12/20 04:50:55;;;;;;;37.77;14.97;;;;;;;;;;5034805;28;20274;-75
2020/12/20 04:54:03;;;;;;;36.77;15.63;;;;;;;;;;5050494;28;20632;-77
2020/12/20 04:57:12;;;;;;;36.97;14.83;;;;;;;;;;5036984;28;20206;-75
2020/12/20 05:00:21;;;;;;;34.83;14.57;;;;;;;;;;5035959;28;20223;-75
2020/12/20 05:03:27;;;;;;;35.27;14.40;;;;;;;;;;5046288;28;20286;-77
2020/12/20 05:06:32;;;;;;;36.40;15.67;;;;;;;;;;5029752;28;20223;-74
2020/12/20 05:09:48;;;;;;;39.73;16.10;;;;;;;;;;5050759;28;20917;-75
2020/12/20 05:12:55;;;;;;;40.93;15.90;;;;;;;;;;5035102;28;20199;-77
2020/12/20 05:16:05;;;;;;;37.57;15.73;;;;;;;;;;5036993;28;20282;-75
2020/12/20 05:19:34;;;;;;;39.17;15.63;;;;;;;;;;5040208;28;20295;-75
2020/12/20 05:22:41;;;;;;;37.13;15.23;;;;;;;;;;5047646;28;20246;-75
2020/12/20 05:25:52;;;;;;;36.67;14.50;;;;;;;;;;5032356;28;20204;-74
2020/12/20 05:29:09;;;;;;;34.57;14.20;;;;;;;;;;5039688;28;20242;-74
2020/12/20 05:32:24;;;;;;;32.77;13.37;;;;;;;;;;5031915;28;20343;-76
2020/12/20 05:35:38;;;;;;;31.30;13.47;;;;;;;;;;5032525;28;20196;-76
2020/12/20 05:38:43;;;;;;;28.90;12.97;;;;;;;;;;5042561;28;20206;-76
2020/12/20 05:41:54;;;;;;;33.87;14.23;;;;;;;;;;5025974;28;20345;-76
2020/12/20 05:45:06;;;;;;;33.63;13.47;;;;;;;;;;5042942;28;20644;-74
2020/12/20 05:48:14;;;;;;;35.20;14.40;;;;;;;;;;5038810;28;20558;-75
2020/12/20 05:51:21;;;;;;;34.53;13.67;;;;;;;;;;5041149;28;20319;-76
2020/12/20 05:54:30;;;;;;;32.77;13.90;;;;;;;;;;5037910;28;20257;-76
2020/12/20 05:57:34;;;;;;;30.20;12.30;;;;;;;;;;5051622;28;20281;-76
2020/12/20 06:00:40;;;;;;;31.77;13.50;;;;;;;;;;5039183;28;20223;-75
2020/12/20 06:03:46;;;;;;;32.17;13.37;;;;;;;;;;5053114;28;20258;-74
2020/12/20 06:06:52;;;;;;;29.60;12.70;;;;;;;;;;5043019;28;20199;-75
2020/12/20 06:09:57;;;;;;;29.90;13.37;;;;;;;;;;5032168;28;20262;-75
2020/12/20 06:13:08;;;;;;;29.20;12.53;;;;;;;;;;5030293;28;20207;-75
2020/12/20 06:16:15;;;;;;;17.07;7.07;;;;;;;;;;5027973;28;20231;-75
2020/12/20 06:19:23;;;;;;;21.63;8.53;;;;;;;;;;5029544;28;20333;-75
2020/12/20 06:22:32;;;;;;;22.03;8.90;;;;;;;;;;5037850;28;20315;-75
2020/12/20 06:25:42;;;;;;;22.80;9.03;;;;;;;;;;5036525;28;20269;-74
2020/12/20 06:28:49;;;;;;;19.43;8.50;;;;;;;;;;5033709;28;20226;-75
2020/12/20 06:31:56;;;;;;;18.13;8.40;;;;;;;;;;5039305;28;20231;-76
2020/12/20 06:35:10;;;;;;;24.67;9.33;;;;;;;;;;5040075;28;20207;-75
2020/12/20 06:38:16;;;;;;;16.50;7.73;;;;;;;;;;5037146;28;20204;-76
2020/12/20 06:41:34;;;;;;;22.87;9.20;;;;;;;;;;5054961;28;20609;-75
2020/12/20 06:44:38;;;;;;;21.83;9.43;;;;;;;;;;5043326;28;20212;-74
2020/12/20 06:47:44;;;;;;;21.63;8.60;;;;;;;;;;5025322;28;20192;-76
2020/12/20 06:50:50;;;;;;;21.33;8.87;;;;;;;;;;5043498;28;20729;-77
2020/12/20 06:53:56;;;;;;;18.40;7.70;;;;;;;;;;5050967;28;20250;-76
2020/12/20 06:57:10;;;;;;;19.87;8.77;;;;;;;;;;5048175;28;20230;-75
2020/12/20 07:00:15;;;;;;;18.87;8.83;;;;;;;;;;5033498;28;20247;-76
2020/12/20 07:03:43;;;;;;;20.97;8.70;;;;;;;;;;5045129;28;20350;-77
2020/12/20 07:07:03;;;;;;;20.93;8.30;;;;;;;;;;5049802;28;20283;-75
2020/12/20 07:10:29;;;;;;;17.67;8.37;;;;;;;;;;5048919;28;20230;-76
2020/12/20 07:13:35;;;;;;;17.57;8.07;;;;;;;;;;5031719;28;20220;-75
2020/12/20 07:16:40;;;;;;;17.20;7.43;;;;;;;;;;5040607;28;20648;-75
2020/12/20 07:20:05;;;;;;;15.43;7.43;;;;;;;;;;5045388;28;20339;-74
2020/12/20 07:23:10;;;;;;;17.37;7.53;;;;;;;;;;5045407;28;20199;-75
2020/12/20 07:26:16;;;;;;;19.70;7.97;;;;;;;;;;5051994;28;20270;-74
2020/12/20 07:29:20;;;;;;;18.07;7.97;;;;;;;;;;5053284;28;20221;-75
2020/12/20 07:32:26;;;;;;;20.53;8.57;;;;;;;;;;5041728;28;20277;-75
2020/12/20 07:35:30;;;;;;;20.37;7.93;;;;;;;;;;5045645;28;20702;-75
2020/12/20 07:38:35;;;;;;;16.73;7.53;;;;;;;;;;5073557;28;20621;-75
2020/12/20 07:41:42;;;;;;;19.50;8.80;;;;;;;;;;5049712;28;20239;-76
2020/12/20 07:44:54;;;;;;;18.13;8.20;;;;;;;;;;5066999;28;20214;-76
2020/12/20 07:47:59;;;;;;;19.47;8.43;;;;;;;;;;5032424;28;20191;-76
2020/12/20 07:51:10;;;;;;;20.60;8.63;;;;;;;;;;5028121;28;20270;-76
2020/12/20 07:54:15;;;;;;;20.20;9.10;;;;;;;;;;5032241;28;20262;-76
2020/12/20 07:57:22;;;;;;;24.53;8.10;;;;;;;;;;5042489;28;20592;-75
2020/12/20 08:00:27;;;;;;;20.73;9.70;;;;;;;;;;5044370;28;20210;-76
2020/12/20 08:03:31;;;;;;;23.37;10.00;;;;;;;;;;5033580;28;20291;-75
2020/12/20 08:06:38;;;;;;;23.87;10.13;;;;;;;;;;5033002;28;20735;-75
2020/12/20 08:09:42;;;;;;;22.63;9.23;;;;;;;;;;5027783;28;20203;-75
2020/12/20 08:12:53;;;;;;;23.23;9.57;;;;;;;;;;5043532;28;20717;-76
2020/12/20 08:15:58;;;;;;;22.70;10.13;;;;;;;;;;5048529;28;20306;-75
2020/12/20 08:19:05;;;;;;;20.07;9.10;;;;;;;;;;5060009;28;20305;-75
2020/12/20 08:22:12;;;;;;;22.37;9.63;;;;;;;;;;5042803;28;20605;-75
2020/12/20 08:25:16;;;;;;;23.50;10.00;;;;;;;;;;5037923;28;20242;-76
2020/12/20 08:28:22;;;;;;;22.37;9.90;;;;;;;;;;5032084;28;20571;-76
2020/12/20 08:31:30;;;;;;;24.17;10.07;;;;;;;;;;5043706;28;20286;-76
2020/12/20 08:34:36;;;;;;;27.83;11.83;;;;;;;;;;5040017;28;20199;-75
2020/12/20 08:37:41;;;;;;;23.90;9.93;;;;;;;;;;5040317;28;20793;-76
2020/12/20 08:40:46;;;;;;;28.87;10.90;;;;;;;;;;5033417;28;20294;-76
2020/12/20 08:44:03;;;;;;;26.43;10.60;;;;;;;;;;5058454;28;20220;-75
2020/12/20 08:47:13;;;;;;;25.60;10.47;;;;;;;;;;5042811;28;20207;-75
2020/12/20 08:50:24;;;;;;;27.03;10.40;;;;;;;;;;5027479;28;20219;-75
2020/12/20 08:53:29;;;;;;;25.23;10.23;;;;;;;;;;5047109;28;20242;-75
2020/12/20 08:56:33;;;;;;;24.20;10.03;;;;;;;;;;5022533;28;20226;-75
2020/12/20 08:59:40;;;;;;;20.07;9.43;;;;;;;;;;5030852;28;20195;-75
2020/12/20 09:02:45;;;;;;;26.47;10.10;;;;;;;;;;5041664;28;20313;-76
2020/12/20 09:05:49;;;;;;;20.13;8.97;;;;;;;;;;5038232;28;20233;-75
2020/12/20 09:08:54;;;;;;;25.37;10.13;;;;;;;;;;5033162;28;20223;-75
2020/12/20 09:12:13;;;;;;;24.53;9.60;;;;;;;;;;5042397;28;20226;-76
2020/12/20 09:15:18;;;;;;;22.43;9.33;;;;;;;;;;5041529;28;20204;-76
2020/12/20 09:18:25;;;;;;;23.90;10.00;;;;;;;;;;5018561;28;20203;-76
2020/12/20 09:21:30;;;;;;;22.77;9.63;;;;;;;;;;5034139;28;20267;-75
2020/12/20 09:24:46;;;;;;;21.40;9.37;;;;;;;;;;5035997;28;20238;-75
2020/12/20 09:27:54;;;;;;;23.03;9.27;;;;;;;;;;5042399;28;20266;-76
2020/12/20 09:31:01;;;;;;;23.57;9.23;;;;;;;;;;5040712;28;20342;-75
2020/12/20 09:34:05;;;;;;;24.53;9.93;;;;;;;;;;5041858;28;20207;-76
2020/12/20 09:37:10;;;;;;;21.87;10.17;;;;;;;;;;5058079;28;20215;-76
2020/12/20 09:40:15;;;;;;;21.93;9.87;;;;;;;;;;5056692;28;20200;-74
2020/12/20 09:43:20;;;;;;;21.33;9.70;;;;;;;;;;5038228;28;20206;-74
2020/12/20 09:46:26;;;;;;;21.83;9.00;;;;;;;;;;5048853;28;20219;-76
2020/12/20 09:49:31;;;;;;;23.37;8.93;;;;;;;;;;5040086;28;20263;-76
2020/12/20 09:52:36;;;;;;;22.03;9.47;;;;;;;;;;5042476;28;20725;-78
2020/12/20 09:55:44;;;;;;;23.23;10.13;;;;;;;;;;5023899;28;20196;-76
2020/12/20 09:58:49;;;;;;;31.60;8.73;;;;;;;;;;5048833;28;20202;-76
2020/12/20 10:01:54;;;;;;;22.57;8.97;;;;;;;;;;5035945;28;20286;-79
2020/12/20 10:04:59;;;;;;;17.63;8.07;;;;;;;;;;5038431;28;20957;-77
2020/12/20 10:08:05;;;;;;;20.10;9.57;;;;;;;;;;5029755;28;20215;-77
2020/12/20 10:11:10;;;;;;;17.47;8.33;;;;;;;;;;5035703;28;20238;-75
2020/12/20 10:14:22;;;;;;;17.10;8.10;;;;;;;;;;5037131;28;20262;-77
2020/12/20 10:17:31;;;;;;;16.63;7.57;;;;;;;;;;5043481;28;20592;-78
2020/12/20 10:20:36;;;;;;;18.93;7.57;;;;;;;;;;5032566;28;20642;-76
2020/12/20 10:23:40;;;;;;;16.23;7.40;;;;;;;;;;5039628;28;20226;-76
2020/12/20 10:30:31;;;;;;;17.37;7.50;;;;;;;;;;5029040;28;20195;-76
2020/12/20 10:33:46;;;;;;;19.07;7.57;;;;;;;;;;5036690;28;20195;-77
2020/12/20 10:36:59;;;;;;;18.03;7.37;;;;;;;;;;5034999;28;20769;-77
2020/12/20 10:40:04;;;;;;;15.40;6.90;;;;;;;;;;5034607;28;20872;-76
2020/12/20 10:43:08;;;;;;;15.50;6.90;;;;;;;;;;5027398;28;20206;-76
2020/12/20 10:46:13;;;;;;;15.70;6.43;;;;;;;;;;5041126;28;20282;-77
2020/12/20 10:49:18;;;;;;;15.03;6.80;;;;;;;;;;5043755;28;20224;-78
2020/12/20 10:52:23;;;;;;;19.73;7.40;;;;;;;;;;5030730;28;20243;-77
2020/12/20 10:55:28;;;;;;;20.77;7.00;;;;;;;;;;5037794;28;20691;-77
2020/12/20 10:58:33;;;;;;;16.20;6.97;;;;;;;;;;5035161;28;20208;-76
2020/12/20 11:01:37;;;;;;;13.90;6.60;;;;;;;;;;5048280;28;20235;-75
2020/12/20 11:04:43;;;;;;;15.13;6.47;;;;;;;;;;5016881;28;20188;-77
2020/12/20 11:07:49;;;;;;;12.67;6.43;;;;;;;;;;5039617;28;20766;-77
2020/12/20 11:10:54;;;;;;;14.27;6.57;;;;;;;;;;5036215;28;20259;-76
2020/12/20 11:14:01;;;;;;;15.53;6.40;;;;;;;;;;5024194;28;20566;-75
2020/12/20 11:17:06;;;;;;;14.90;6.80;;;;;;;;;;5036788;28;20828;-78
2020/12/20 11:20:12;;;;;;;15.00;6.10;;;;;;;;;;5044232;28;20601;-76
2020/12/20 11:23:16;;;;;;;15.73;6.70;;;;;;;;;;5042630;28;20768;-76
2020/12/20 11:26:22;;;;;;;13.07;6.33;;;;;;;;;;5040649;28;20219;-78
2020/12/20 11:29:26;;;;;;;15.23;6.47;;;;;;;;;;5036533;28;20219;-76
2020/12/20 11:32:34;;;;;;;16.77;6.87;;;;;;;;;;5034920;28;20235;-76
2020/12/20 11:35:39;;;;;;;15.77;6.27;;;;;;;;;;5040242;28;20199;-76
2020/12/20 11:38:44;;;;;;;14.23;7.30;;;;;;;;;;5038315;28;20698;-78
2020/12/20 11:41:48;;;;;;;19.37;7.10;;;;;;;;;;5042353;28;20265;-75
2020/12/20 11:44:53;;;;;;;15.93;6.40;;;;;;;;;;5045304;28;20277;-75
2020/12/20 11:47:59;;;;;;;16.77;7.20;;;;;;;;;;5038926;28;20239;-78
2020/12/20 11:51:05;;;;;;;16.27;6.70;;;;;;;;;;5038963;28;20309;-74
2020/12/20 11:54:10;;;;;;;16.23;7.20;;;;;;;;;;5050041;28;20196;-75
2020/12/20 11:57:14;;;;;;;18.83;6.83;;;;;;;;;;5043839;28;20222;-76
2020/12/20 12:00:19;;;;;;;18.33;7.43;;;;;;;;;;5059945;28;20188;-75
2020/12/20 12:03:24;;;;;;;17.33;7.10;;;;;;;;;;5061659;28;20207;-79
2020/12/20 12:06:30;;;;;;;15.13;6.70;;;;;;;;;;5054153;28;20215;-78
2020/12/20 12:09:35;;;;;;;15.17;6.47;;;;;;;;;;5043293;28;20223;-77
2020/12/20 12:12:40;;;;;;;15.93;7.00;;;;;;;;;;5047556;28;20231;-76
2020/12/20 12:15:45;;;;;;;15.73;7.00;;;;;;;;;;5017289;28;20259;-76
2020/12/20 12:18:50;;;;;;;17.60;6.60;;;;;;;;;;5056240;28;20194;-77
2020/12/20 12:21:56;;;;;;;16.07;6.73;;;;;;;;;;5042456;28;20226;-76
2020/12/20 12:25:01;;;;;;;19.53;7.90;;;;;;;;;;5022570;28;20690;-77
2020/12/20 12:28:07;;;;;;;14.20;6.90;;;;;;;;;;5042603;28;20227;-77
2020/12/20 12:31:12;;;;;;;20.40;7.13;;;;;;;;;;5033269;28;20222;-76
2020/12/20 12:34:16;;;;;;;17.30;7.23;;;;;;;;;;5034847;28;20218;-76
2020/12/20 12:37:22;;;;;;;14.43;7.03;;;;;;;;;;5044732;28;20219;-75
2020/12/20 12:40:27;;;;;;;21.37;8.10;;;;;;;;;;5050840;28;20202;-73
2020/12/20 12:43:32;;;;;;;19.60;7.37;;;;;;;;;;5050074;28;20212;-75
2020/12/20 12:46:43;;;;;;;15.00;7.13;;;;;;;;;;5051512;28;20183;-76
2020/12/20 12:49:49;;;;;;;15.33;7.30;;;;;;;;;;5044393;28;20239;-77
2020/12/20 12:52:54;;;;;;;15.33;6.77;;;;;;;;;;5061330;28;20219;-77
2020/12/20 12:56:00;;;;;;;16.23;7.63;;;;;;;;;;5052007;28;20187;-77
2020/12/20 12:59:06;;;;;;;16.93;7.27;;;;;;;;;;5070997;28;20194;-77
2020/12/20 13:02:10;;;;;;;15.43;7.27;;;;;;;;;;5055885;28;20231;-77
2020/12/20 13:05:15;;;;;;;17.00;7.33;;;;;;;;;;5056024;28;20210;-79
2020/12/20 13:08:20;;;;;;;17.83;7.10;;;;;;;;;;5038688;28;20188;-79
2020/12/20 13:11:26;;;;;;;19.00;7.70;;;;;;;;;;5041509;28;20235;-79
2020/12/20 13:14:31;;;;;;;15.57;6.83;;;;;;;;;;5042801;28;20211;-77
2020/12/20 13:17:37;;;;;;;18.13;7.53;;;;;;;;;;5058841;28;20290;-78
2020/12/20 13:20:43;;;;;;;14.73;7.17;;;;;;;;;;5058241;28;20207;-77
2020/12/20 13:23:49;;;;;;;20.60;8.83;;;;;;;;;;5039884;28;20242;-77
2020/12/20 13:26:54;;;;;;;29.03;11.50;;;;;;;;;;5037057;28;20203;-77
2020/12/20 13:29:59;;;;;;;15.10;7.27;;;;;;;;;;5045699;28;20286;-77
2020/12/20 13:33:03;;;;;;;16.97;7.30;;;;;;;;;;5039316;28;20198;-78
2020/12/20 13:36:08;;;;;;;17.43;7.67;;;;;;;;;;5048183;28;20211;-77
2020/12/20 13:39:14;;;;;;;18.53;7.17;;;;;;;;;;5050866;28;20476;-77
2020/12/20 13:42:19;;;;;;;15.63;7.30;;;;;;;;;;5047820;28;20273;-77
2020/12/20 13:45:24;;;;;;;17.53;7.30;;;;;;;;;;5057937;28;20265;-78
2020/12/20 13:48:29;;;;;;;15.50;6.83;;;;;;;;;;5047765;28;20207;-76
2020/12/20 13:51:34;;;;;;;18.03;8.10;;;;;;;;;;5057900;28;20223;-76
2020/12/20 13:54:40;;;;;;;16.47;7.50;;;;;;;;;;5055417;28;20211;-75
2020/12/20 13:57:44;;;;;;;16.13;7.17;;;;;;;;;;5043433;28;20773;-77
2020/12/20 14:00:49;;;;;;;44.70;19.80;;;;;;;;;;5047924;28;20270;-77
2020/12/20 14:03:53;;;;;;;17.67;7.97;;;;;;;;;;5051360;28;20283;-76
2020/12/20 14:07:00;;;;;;;17.67;9.80;;;;;;;;;;5037548;28;20195;-76
2020/12/20 14:10:06;;;;;;;17.23;8.87;;;;;;;;;;5041065;28;20231;-77
2020/12/20 14:13:11;;;;;;;15.10;7.67;;;;;;;;;;5055380;28;20218;-78
2020/12/20 14:16:16;;;;;;;17.97;7.93;;;;;;;;;;5047747;28;20757;-78
2020/12/20 14:19:21;;;;;;;16.67;7.97;;;;;;;;;;5019048;28;20193;-78
2020/12/20 14:22:26;;;;;;;20.70;7.90;;;;;;;;;;5041831;28;20247;-78
2020/12/20 14:25:32;;;;;;;17.70;7.90;;;;;;;;;;5055971;28;20251;-76
2020/12/20 14:28:37;;;;;;;18.10;7.53;;;;;;;;;;5050154;28;20211;-77
2020/12/20 14:31:42;;;;;;;16.47;7.63;;;;;;;;;;5064730;28;20315;-76
2020/12/20 14:34:47;;;;;;;17.33;7.50;;;;;;;;;;5056104;28;20618;-75
2020/12/20 14:37:52;;;;;;;16.13;7.57;;;;;;;;;;5033839;28;20262;-76
2020/12/20 14:40:58;;;;;;;15.40;7.17;;;;;;;;;;5035537;28;20235;-76
2020/12/20 14:44:02;;;;;;;21.90;8.77;;;;;;;;;;5031161;28;20220;-76
2020/12/20 14:47:12;;;;;;;28.70;11.47;;;;;;;;;;5037294;28;20691;-76
2020/12/20 14:50:17;;;;;;;15.43;8.00;;;;;;;;;;5024328;28;20277;-77
2020/12/20 14:53:22;;;;;;;17.80;7.87;;;;;;;;;;5026121;28;20230;-76
2020/12/20 14:56:27;;;;;;;16.87;7.70;;;;;;;;;;5034690;28;20203;-76
2020/12/20 14:59:32;;;;;;;19.83;8.67;;;;;;;;;;5034277;28;20331;-76
2020/12/20 15:02:36;;;;;;;21.33;9.37;;;;;;;;;;5036904;28;20230;-75
2020/12/20 15:05:41;;;;;;;18.33;7.90;;;;;;;;;;5025243;28;20212;-76
2020/12/20 15:08:46;;;;;;;15.80;7.63;;;;;;;;;;5046101;28;20265;-76
2020/12/20 15:11:51;;;;;;;15.43;7.10;;;;;;;;;;5034986;28;20777;-75
2020/12/20 15:14:58;;;;;;;14.37;6.80;;;;;;;;;;5044414;28;20223;-76
2020/12/20 15:18:03;;;;;;;17.90;7.10;;;;;;;;;;5036193;28;20273;-76
2020/12/20 15:21:07;;;;;;;14.17;6.27;;;;;;;;;;5032348;28;20599;-76
2020/12/20 15:24:12;;;;;;;13.97;6.53;;;;;;;;;;5042674;28;20243;-76
2020/12/20 15:27:23;;;;;;;15.07;6.80;;;;;;;;;;5043105;28;20192;-76
2020/12/20 15:30:31;;;;;;;15.33;7.07;;;;;;;;;;5039578;28;20235;-76
2020/12/20 15:33:40;;;;;;;15.40;6.80;;;;;;;;;;5028886;28;20211;-76
2020/12/20 15:36:46;;;;;;;17.00;6.93;;;;;;;;;;5032211;28;20199;-76
2020/12/20 15:39:51;;;;;;;17.67;6.80;;;;;;;;;;5032962;28;20207;-76
2020/12/20 15:42:57;;;;;;;14.83;6.27;;;;;;;;;;5038331;28;20284;-75
2020/12/20 15:46:01;;;;;;;12.77;6.47;;;;;;;;;;5039702;28;20199;-75
2020/12/20 15:49:05;;;;;;;18.00;6.93;;;;;;;;;;5037292;28;20231;-75
2020/12/20 15:52:10;;;;;;;11.00;5.67;;;;;;;;;;5035646;28;20734;-76
2020/12/20 15:55:15;;;;;;;13.00;6.13;;;;;;;;;;5036887;28;20207;-76
2020/12/20 15:58:20;;;;;;;13.40;5.50;;;;;;;;;;5036256;28;20299;-77
2020/12/20 16:01:25;;;;;;;11.97;5.63;;;;;;;;;;5046411;28;20286;-76
2020/12/20 16:04:32;;;;;;;13.30;5.47;;;;;;;;;;5036331;28;20207;-76
2020/12/20 16:07:38;;;;;;;10.57;5.07;;;;;;;;;;5046034;28;20195;-77
2020/12/20 16:10:43;;;;;;;10.63;5.07;;;;;;;;;;5032971;28;20250;-76
2020/12/20 16:13:49;;;;;;;9.13;4.80;;;;;;;;;;5038434;28;20198;-77
2020/12/20 16:16:53;;;;;;;9.03;4.33;;;;;;;;;;5037465;28;20581;-76
2020/12/20 16:19:59;;;;;;;11.60;5.30;;;;;;;;;;5031393;28;20352;-77
2020/12/20 16:23:04;;;;;;;12.40;5.80;;;;;;;;;;5033703;28;20698;-77
2020/12/20 16:26:08;;;;;;;10.53;5.00;;;;;;;;;;5031516;28;20257;-77
2020/12/20 16:29:13;;;;;;;11.87;5.50;;;;;;;;;;5032546;28;20215;-76
2020/12/20 16:32:21;;;;;;;11.03;5.03;;;;;;;;;;5033158;28;20305;-77
2020/12/20 16:35:26;;;;;;;14.60;5.87;;;;;;;;;;5046296;28;20204;-76
2020/12/20 16:38:36;;;;;;;17.33;6.33;;;;;;;;;;5041570;28;20228;-77
2020/12/20 16:41:41;;;;;;;17.57;6.63;;;;;;;;;;5038005;28;20272;-76
2020/12/20 16:44:47;;;;;;;15.90;7.40;;;;;;;;;;5035049;28;20223;-77
2020/12/20 16:47:52;;;;;;;15.23;6.60;;;;;;;;;;5027438;28;20199;-76
2020/12/20 16:50:56;;;;;;;14.70;6.23;;;;;;;;;;5040770;28;20231;-76
2020/12/20 16:54:01;;;;;;;14.37;7.10;;;;;;;;;;5032161;28;20207;-75
2020/12/20 16:57:06;;;;;;;11.83;5.77;;;;;;;;;;5035838;28;20251;-76
2020/12/20 17:00:12;;;;;;;13.47;6.37;;;;;;;;;;5032701;28;20223;-76
2020/12/20 17:03:17;;;;;;;11.63;5.93;;;;;;;;;;5030434;28;20643;-76
2020/12/20 17:06:22;;;;;;;14.13;6.70;;;;;;;;;;5045085;28;20199;-77
2020/12/20 17:09:26;;;;;;;14.67;6.50;;;;;;;;;;5047514;28;20250;-77
2020/12/20 17:12:31;;;;;;;17.97;8.97;;;;;;;;;;5030998;28;20625;-76
2020/12/20 17:15:37;;;;;;;22.60;10.17;;;;;;;;;;5032582;28;20235;-77
2020/12/20 17:18:42;;;;;;;13.20;6.43;;;;;;;;;;5032029;28;20269;-77
2020/12/20 17:21:47;;;;;;;14.60;7.63;;;;;;;;;;5013871;28;20239;-76
2020/12/20 17:24:51;;;;;;;19.17;9.10;;;;;;;;;;5043307;28;20250;-77
2020/12/20 17:27:56;;;;;;;21.73;8.97;;;;;;;;;;5034310;28;20211;-76
2020/12/20 17:31:02;;;;;;;21.70;9.90;;;;;;;;;;5031497;28;20273;-77
2020/12/20 17:34:07;;;;;;;24.33;10.93;;;;;;;;;;5031203;28;20184;-77
2020/12/20 17:37:12;;;;;;;36.57;14.77;;;;;;;;;;5031698;28;20212;-77
2020/12/20 17:40:16;;;;;;;21.97;9.67;;;;;;;;;;5031382;28;20276;-77
2020/12/20 17:43:21;;;;;;;24.13;10.93;;;;;;;;;;5031679;28;20215;-77
2020/12/20 17:46:26;;;;;;;19.13;9.50;;;;;;;;;;5012692;28;20251;-77
2020/12/20 17:49:31;;;;;;;24.43;10.50;;;;;;;;;;5011794;28;20259;-77
2020/12/20 17:52:36;;;;;;;57.37;22.17;;;;;;;;;;5030893;28;20729;-76
2020/12/20 17:55:41;;;;;;;51.30;19.83;;;;;;;;;;5031011;28;20293;-76
2020/12/20 17:58:46;;;;;;;31.43;12.87;;;;;;;;;;5031007;28;20238;-76
2020/12/20 18:01:52;;;;;;;33.57;14.90;;;;;;;;;;5023108;28;20252;-76
2020/12/20 18:04:56;;;;;;;29.40;11.97;;;;;;;;;;5023130;28;20196;-77
2020/12/20 18:08:02;;;;;;;31.13;13.77;;;;;;;;;;5013204;28;20228;-77
2020/12/20 18:11:07;;;;;;;28.03;11.50;;;;;;;;;;5030841;28;20231;-77
2020/12/20 18:14:12;;;;;;;27.77;12.27;;;;;;;;;;5012731;28;20242;-77
2020/12/20 18:17:19;;;;;;;30.33;12.37;;;;;;;;;;5036781;28;20227;-76
2020/12/20 18:20:24;;;;;;;28.27;12.00;;;;;;;;;;5034786;28;20207;-76